Time;durP1;ratioP1;P1;durP2;ratioP2;P2;SDS_P1;SDS_P2;PMS_P1;PMS_P2;Temp;Humidity;BMP_temperature;BMP_pressure;BME280_temperature;BME280_humidity;BME280_pressure;Samples;Min_cycle;Max_cycle;Signal;HPM_P1;HPM_P2
2024/02/13 00:00:52;;;;;;;;;;;;;;;8.58;100.00;98106.89;109626;1253;75238;-71
2024/02/13 00:03:20;;;;;;;;;;;;;;;8.55;100.00;98107.77;109647;1251;67930;-71
2024/02/13 00:05:48;;;;;;;;;;;;;;;8.47;100.00;98103.42;109611;1251;73567;-70
2024/02/13 00:08:16;;;;;;;;;;;;;;;8.38;100.00;98101.08;109664;1253;61981;-70
2024/02/13 00:10:44;;;;;;;;;;;;;;;8.37;100.00;98098.36;109621;1251;59044;-71
2024/02/13 00:13:12;;;;;;;;;;;;;;;8.39;100.00;98104.83;109655;1251;74769;-71
2024/02/13 00:15:39;;;;;;;;;;;;;;;8.36;100.00;98101.30;109595;1251;68815;-71
2024/02/13 00:18:07;;;;;;;;;;;;;;;8.38;100.00;98097.45;109625;1251;73002;-71
2024/02/13 00:20:35;;;;;;;;;;;;;;;8.31;100.00;98102.39;109621;1254;58979;-71
2024/02/13 00:23:04;;;;;;;;;;;;;;;8.26;100.00;98103.75;109656;1251;60485;-71
2024/02/13 00:25:32;;;;;;;;;;;;;;;8.29;100.00;98105.60;109667;1251;74684;-71
2024/02/13 00:27:59;;;;;;;;;;;;;;;8.31;100.00;98106.14;109665;1251;70995;-71
2024/02/13 00:30:27;;;;;;;;;;;;;;;8.37;100.00;98106.91;109587;1251;74959;-71
2024/02/13 00:32:57;;;;;;;;;;;;;;;8.39;100.00;98107.56;109604;1253;60218;-71
2024/02/13 00:35:25;;;;;;;;;;;;;;;8.44;100.00;98109.27;109648;1251;60786;-71
2024/02/13 00:37:53;;;;;;;;;;;;;;;8.53;100.00;98113.60;109362;1251;73165;-71
2024/02/13 00:40:21;;;;;;;;;;;;;;;8.50;100.00;98113.50;109653;1251;69526;-71
2024/02/13 00:42:49;;;;;;;;;;;;;;;8.50;100.00;98115.77;109659;1252;72101;-69
2024/02/13 00:45:16;;;;;;;;;;;;;;;8.59;100.00;98119.09;109626;1253;62216;-69
2024/02/13 00:47:44;;;;;;;;;;;;;;;8.61;100.00;98127.09;109695;1252;61026;-71
2024/02/13 00:50:14;;;;;;;;;;;;;;;8.71;100.00;98122.60;109586;1252;74902;-70
2024/02/13 00:52:42;;;;;;;;;;;;;;;8.75;100.00;98117.61;109634;1251;68313;-69
2024/02/13 00:55:10;;;;;;;;;;;;;;;8.70;100.00;98112.88;109598;1251;73043;-70
2024/02/13 00:57:37;;;;;;;;;;;;;;;8.64;100.00;98108.69;109596;1254;60106;-70
2024/02/13 01:00:06;;;;;;;;;;;;;;;8.67;100.00;98117.75;109371;1251;59064;-69
2024/02/13 01:02:34;;;;;;;;;;;;;;;8.69;100.00;98119.09;109581;1253;74407;-70
2024/02/13 01:05:01;;;;;;;;;;;;;;;8.73;100.00;98122.05;109621;1251;67313;-70
2024/02/13 01:07:30;;;;;;;;;;;;;;;8.77;100.00;98125.29;109665;1251;73327;-70
2024/02/13 01:09:57;;;;;;;;;;;;;;;8.81;100.00;98124.05;109585;1251;60978;-70
2024/02/13 01:12:25;;;;;;;;;;;;;;;8.71;100.00;98122.13;109625;1251;58991;-70
2024/02/13 01:14:52;;;;;;;;;;;;;;;8.77;100.00;98122.04;109633;1254;74348;-71
2024/02/13 01:17:20;;;;;;;;;;;;;;;8.85;100.00;98123.16;109630;1251;68604;-69
2024/02/13 01:19:48;;;;;;;;;;;;;;;8.88;100.00;98126.14;109628;1254;72657;-69
2024/02/13 01:22:17;;;;;;;;;;;;;;;9.04;100.00;98128.93;109606;1254;60999;-70
2024/02/13 01:24:44;;;;;;;;;;;;;;;9.11;100.00;98126.95;109632;1253;60895;-72
2024/02/13 01:27:13;;;;;;;;;;;;;;;9.14;100.00;98127.41;109657;1251;75569;-69
2024/02/13 01:29:41;;;;;;;;;;;;;;;9.09;100.00;98129.52;109612;1251;67998;-70
2024/02/13 01:32:08;;;;;;;;;;;;;;;9.04;100.00;98124.06;109653;1251;73159;-70
2024/02/13 01:34:36;;;;;;;;;;;;;;;9.11;100.00;98124.91;109629;1254;60797;-70
2024/02/13 01:37:03;;;;;;;;;;;;;;;9.07;100.00;98123.39;109598;1254;59177;-70
2024/02/13 01:39:31;;;;;;;;;;;;;;;9.09;100.00;98120.17;109688;1251;75298;-71
2024/02/13 01:41:59;;;;;;;;;;;;;;;9.19;100.00;98125.66;109638;1251;69545;-70
2024/02/13 01:44:28;;;;;;;;;;;;;;;9.28;100.00;98131.16;109409;1254;70537;-70
2024/02/13 01:46:57;;;;;;;;;;;;;;;9.27;100.00;98131.98;109251;1254;60966;-71
2024/02/13 01:49:24;;;;;;;;;;;;;;;9.30;100.00;98133.19;109308;1254;61146;-70
2024/02/13 01:51:52;;;;;;;;;;;;;;;9.30;100.00;98134.95;109282;1255;76923;-71
2024/02/13 01:54:19;;;;;;;;;;;;;;;9.26;100.00;98134.77;109251;1254;68324;-69
2024/02/13 01:56:47;;;;;;;;;;;;;;;9.26;100.00;98129.95;109219;1254;73292;-70
2024/02/13 01:59:14;;;;;;;;;;;;;;;9.31;100.00;98129.33;109268;1254;60434;-71
2024/02/13 02:01:42;;;;;;;;;;;;;;;9.30;100.00;98124.88;109243;1254;59065;-70
2024/02/13 02:04:11;;;;;;;;;;;;;;;9.31;100.00;98126.27;109299;1256;76531;-70
2024/02/13 02:06:39;;;;;;;;;;;;;;;9.32;100.00;98125.15;109193;1254;68466;-70
2024/02/13 02:09:07;;;;;;;;;;;;;;;9.31;100.00;98117.48;109052;1259;73772;-71
2024/02/13 02:11:35;;;;;;;;;;;;;;;9.36;100.00;98111.02;109059;1260;61197;-70
2024/02/13 02:14:03;;;;;;;;;;;;;;;9.38;100.00;98106.98;109093;1259;62153;-69
2024/02/13 02:16:30;;;;;;;;;;;;;;;9.35;100.00;98106.80;109101;1256;74037;-70
2024/02/13 02:18:58;;;;;;;;;;;;;;;9.42;100.00;98109.85;109167;1261;67946;-71
2024/02/13 02:21:27;;;;;;;;;;;;;;;9.46;100.00;98113.14;109204;1256;74183;-71
2024/02/13 02:23:55;;;;;;;;;;;;;;;9.50;100.00;98112.66;109150;1257;61348;-71
2024/02/13 02:26:23;;;;;;;;;;;;;;;9.40;100.00;98115.11;109201;1256;59343;-71
2024/02/13 02:28:50;;;;;;;;;;;;;;;9.32;100.00;98116.41;109209;1257;74072;-71
2024/02/13 02:31:18;;;;;;;;;;;;;;;9.21;100.00;98127.90;109220;1256;70595;-71
2024/02/13 02:33:46;;;;;;;;;;;;;;;9.21;100.00;98125.43;109196;1256;74892;-71
2024/02/13 02:36:14;;;;;;;;;;;;;;;9.06;100.00;98117.45;109185;1256;63311;-70
2024/02/13 02:38:41;;;;;;;;;;;;;;;9.04;100.00;98115.71;109058;1257;62020;-71
2024/02/13 02:41:09;;;;;;;;;;;;;;;8.98;100.00;98115.95;109471;1253;76898;-71
2024/02/13 02:43:37;;;;;;;;;;;;;;;9.00;100.00;98116.33;109568;1253;68993;-69
2024/02/13 02:46:05;;;;;;;;;;;;;;;9.09;100.00;98119.89;109568;1253;71592;-71
2024/02/13 02:48:33;;;;;;;;;;;;;;;9.15;100.00;98124.67;109172;1254;63123;-68
2024/02/13 02:51:01;;;;;;;;;;;;;;;9.19;100.00;98128.70;109441;1254;59051;-70
2024/02/13 02:53:29;;;;;;;;;;;;;;;9.32;100.00;98129.79;109241;1255;75320;-70
2024/02/13 02:55:56;;;;;;;;;;;;;;;9.33;100.00;98127.54;109224;1256;67228;-71
2024/02/13 02:58:24;;;;;;;;;;;;;;;9.36;100.00;98129.60;108989;1259;72952;-68
2024/02/13 03:00:52;;;;;;;;;;;;;;;9.31;100.00;98129.38;109098;1258;60693;-70
2024/02/13 03:03:20;;;;;;;;;;;;;;;9.25;100.00;98128.19;109090;1257;58971;-70
2024/02/13 03:05:51;;;;;;;;;;;;;;;9.24;100.00;98127.61;109130;1257;75250;-70
2024/02/13 03:08:19;;;;;;;;;;;;;;;9.24;100.00;98126.75;109148;1256;68933;-70
2024/02/13 03:10:47;;;;;;;;;;;;;;;9.20;100.00;98129.30;109238;1256;74596;-70
2024/02/13 03:13:15;;;;;;;;;;;;;;;9.26;100.00;98134.45;109166;1257;61755;-69
2024/02/13 03:15:44;;;;;;;;;;;;;;;9.33;100.00;98135.83;109346;1254;60191;-69
2024/02/13 03:18:12;;;;;;;;;;;;;;;9.31;100.00;98137.67;109397;1254;74630;-71
2024/02/13 03:20:40;;;;;;;;;;;;;;;9.40;100.00;98136.58;109386;1254;68224;-71
2024/02/13 03:23:08;;;;;;;;;;;;;;;9.36;100.00;98141.81;108997;1257;73380;-70
2024/02/13 03:25:36;;;;;;;;;;;;;;;9.33;100.00;98143.88;109080;1260;62532;-70
2024/02/13 03:28:04;;;;;;;;;;;;;;;9.32;100.00;98148.48;109109;1257;60107;-70
2024/02/13 03:30:33;;;;;;;;;;;;;;;9.32;100.00;98150.57;109119;1257;76980;-70
2024/02/13 03:33:00;;;;;;;;;;;;;;;9.36;100.00;98149.05;109144;1257;71049;-70
2024/02/13 03:35:30;;;;;;;;;;;;;;;9.37;100.00;98148.92;109238;1257;71838;-70
2024/02/13 03:37:58;;;;;;;;;;;;;;;9.22;100.00;98143.73;109227;1257;60045;-70
2024/02/13 03:40:26;;;;;;;;;;;;;;;9.16;100.00;98146.20;109236;1257;59418;-70
2024/02/13 03:42:53;;;;;;;;;;;;;;;9.13;100.00;98147.33;109239;1256;75679;-70
2024/02/13 03:45:21;;;;;;;;;;;;;;;9.06;100.00;98155.09;109240;1259;70182;-70
2024/02/13 03:47:48;;;;;;;;;;;;;;;9.04;100.00;98158.04;109287;1257;74086;-70
2024/02/13 03:50:16;;;;;;;;;;;;;;;9.12;100.00;98165.60;109222;1257;59675;-70
2024/02/13 03:52:44;;;;;;;;;;;;;;;9.15;100.00;98171.40;109170;1256;59002;-70
2024/02/13 03:55:11;;;;;;;;;;;;;;;9.16;100.00;98172.37;109252;1256;76890;-70
2024/02/13 03:57:40;;;;;;;;;;;;;;;9.23;100.00;98179.98;109040;1257;68105;-70
2024/02/13 04:00:09;;;;;;;;;;;;;;;9.27;100.00;98182.26;109292;1253;71015;-70
2024/02/13 04:02:36;;;;;;;;;;;;;;;9.33;100.00;98180.29;109547;1253;62031;-70
2024/02/13 04:05:05;;;;;;;;;;;;;;;9.38;100.00;98184.48;109297;1253;60101;-70
2024/02/13 04:07:33;;;;;;;;;;;;;;;9.42;100.00;98191.56;109263;1252;74071;-70
2024/02/13 04:10:02;;;;;;;;;;;;;;;9.42;100.00;98196.61;109343;1254;67805;-70
2024/02/13 04:12:30;;;;;;;;;;;;;;;9.42;100.00;98197.36;109612;1254;72432;-70
2024/02/13 04:14:57;;;;;;;;;;;;;;;9.45;100.00;98200.02;109055;1255;60780;-70
2024/02/13 04:17:25;;;;;;;;;;;;;;;9.46;100.00;98204.89;109228;1257;59325;-70
2024/02/13 04:19:53;;;;;;;;;;;;;;;9.49;100.00;98205.29;109281;1257;75332;-70
2024/02/13 04:22:20;;;;;;;;;;;;;;;9.56;100.00;98203.25;109286;1256;67859;-70
2024/02/13 04:24:48;;;;;;;;;;;;;;;9.60;100.00;98202.26;109248;1257;74992;-70
2024/02/13 04:27:17;;;;;;;;;;;;;;;9.63;100.00;98210.81;108986;1257;61403;-70
2024/02/13 04:29:45;;;;;;;;;;;;;;;9.65;100.00;98213.10;109159;1256;60303;-70
2024/02/13 04:32:13;;;;;;;;;;;;;;;9.57;100.00;98212.94;109152;1257;73091;-70
2024/02/13 04:34:41;;;;;;;;;;;;;;;9.60;100.00;98214.21;109265;1257;70183;-70
2024/02/13 04:37:09;;;;;;;;;;;;;;;9.62;100.00;98219.40;109035;1257;72188;-70
2024/02/13 04:39:37;;;;;;;;;;;;;;;9.60;100.00;98217.70;109092;1256;62177;-70
2024/02/13 04:42:04;;;;;;;;;;;;;;;9.56;100.00;98218.42;109128;1256;60054;-70
2024/02/13 04:44:32;;;;;;;;;;;;;;;9.59;100.00;98219.03;109247;1257;73349;-70
2024/02/13 04:46:59;;;;;;;;;;;;;;;9.60;100.00;98221.92;109524;1253;67548;-71
2024/02/13 04:49:27;;;;;;;;;;;;;;;9.58;100.00;98224.02;109549;1254;72757;-71
2024/02/13 04:51:54;;;;;;;;;;;;;;;9.63;100.00;98227.42;109438;1253;61301;-71
2024/02/13 04:54:22;;;;;;;;;;;;;;;9.68;100.00;98224.44;109532;1254;59863;-70
2024/02/13 04:56:49;;;;;;;;;;;;;;;9.69;100.00;98227.48;109570;1254;76898;-70
2024/02/13 04:59:18;;;;;;;;;;;;;;;9.74;100.00;98222.45;109503;1253;67369;-71
2024/02/13 05:01:47;;;;;;;;;;;;;;;9.81;100.00;98225.08;109534;1254;73989;-70
2024/02/13 05:09:29;;;;;;;;;;;;;;;9.85;100.00;98226.70;109207;1253;74305;-71
2024/02/13 05:11:56;;;;;;;;;;;;;;;9.88;100.00;98237.99;109550;1252;68577;-70
2024/02/13 05:14:24;;;;;;;;;;;;;;;9.89;100.00;98238.95;109552;1253;72443;-70
2024/02/13 05:16:52;;;;;;;;;;;;;;;9.73;100.00;98237.09;109568;1254;62151;-70
2024/02/13 05:19:20;;;;;;;;;;;;;;;9.72;100.00;98233.46;109637;1253;60615;-70
2024/02/13 05:21:50;;;;;;;;;;;;;;;9.63;100.00;98237.75;109433;1252;196963;-70
2024/02/13 05:24:18;;;;;;;;;;;;;;;9.46;100.00;98249.44;109583;1253;70313;-70
2024/02/13 05:26:46;;;;;;;;;;;;;;;9.42;100.00;98249.70;109201;1253;72703;-70
2024/02/13 05:29:13;;;;;;;;;;;;;;;9.39;100.00;98244.67;109550;1253;61303;-70
2024/02/13 05:31:41;;;;;;;;;;;;;;;9.43;100.00;98239.98;109559;1254;59027;-70
2024/02/13 05:34:09;;;;;;;;;;;;;;;9.43;100.00;98239.98;109663;1253;76969;-70
2024/02/13 05:36:37;;;;;;;;;;;;;;;9.43;100.00;98246.31;109631;1252;68590;-70
2024/02/13 05:39:05;;;;;;;;;;;;;;;9.39;100.00;98243.81;109596;1254;72412;-70
2024/02/13 05:41:32;;;;;;;;;;;;;;;9.40;100.00;98251.67;109566;1253;63257;-70
2024/02/13 05:44:03;;;;;;;;;;;;;;;9.39;100.00;98258.02;109544;1252;62074;-70
2024/02/13 05:46:30;;;;;;;;;;;;;;;9.35;100.00;98259.80;109541;1253;74433;-70
2024/02/13 05:49:00;;;;;;;;;;;;;;;9.33;100.00;98264.16;109608;1254;67925;-69
2024/02/13 05:51:27;;;;;;;;;;;;;;;9.31;100.00;98267.75;109553;1252;73908;-69
2024/02/13 05:53:55;;;;;;;;;;;;;;;9.22;100.00;98275.29;109328;1252;61990;-70
2024/02/13 05:56:23;;;;;;;;;;;;;;;9.31;100.00;98278.67;109457;1254;61145;-70
2024/02/13 05:59:00;;;;;;;;;;;;;;;9.31;100.00;98279.58;109463;1253;76987;-70
2024/02/13 06:01:29;;;;;;;;;;;;;;;9.31;100.00;98278.67;109484;1253;70253;-70
2024/02/13 06:04:01;;;;;;;;;;;;;;;9.24;100.00;98282.58;109617;1253;71436;-70
2024/02/13 06:06:28;;;;;;;;;;;;;;;9.12;100.00;98292.21;109587;1252;62923;-70
2024/02/13 06:08:56;;;;;;;;;;;;;;;9.08;100.00;98299.46;109590;1253;58916;-70
2024/02/13 06:11:24;;;;;;;;;;;;;;;9.11;100.00;98305.97;109611;1253;75973;-70
2024/02/13 06:13:54;;;;;;;;;;;;;;;9.08;100.00;98302.08;109428;1254;70584;-69
2024/02/13 06:16:21;;;;;;;;;;;;;;;9.20;100.00;98305.84;109595;1252;74889;-69
2024/02/13 06:18:49;;;;;;;;;;;;;;;9.28;100.00;98302.48;109305;1253;60231;-69
2024/02/13 06:21:18;;;;;;;;;;;;;;;9.27;100.00;98306.98;109618;1252;59934;-69
2024/02/13 06:23:51;;;;;;;;;;;;;;;9.28;100.00;98308.04;109602;1253;75716;-69
2024/02/13 06:26:19;;;;;;;;;;;;;;;9.48;100.00;98312.23;109583;1254;67998;-70
2024/02/13 06:28:47;;;;;;;;;;;;;;;9.45;100.00;98313.46;109595;1252;73982;-70
2024/02/13 06:31:14;;;;;;;;;;;;;;;9.48;100.00;98319.77;109550;1254;62276;-70
2024/02/13 06:33:42;;;;;;;;;;;;;;;9.40;100.00;98323.56;109607;1254;58859;-70
2024/02/13 06:36:10;;;;;;;;;;;;;;;9.22;100.00;98328.20;109587;1253;74531;-69
2024/02/13 06:38:38;;;;;;;;;;;;;;;9.12;100.00;98325.61;109592;1253;70106;-68
2024/02/13 06:41:05;;;;;;;;;;;;;;;9.06;100.00;98323.50;109609;1253;74042;-70
2024/02/13 06:43:33;;;;;;;;;;;;;;;9.08;100.00;98328.52;109543;1253;60833;-70
2024/02/13 06:46:01;;;;;;;;;;;;;;;8.99;100.00;98325.83;109643;1254;58946;-70
2024/02/13 06:48:32;;;;;;;;;;;;;;;8.90;100.00;98331.27;109560;1253;74582;-70
2024/02/13 06:51:01;;;;;;;;;;;;;;;8.85;100.00;98338.71;109436;1253;67657;-70
2024/02/13 06:53:28;;;;;;;;;;;;;;;8.78;100.00;98348.73;109469;1253;74803;-70
2024/02/13 06:55:56;;;;;;;;;;;;;;;8.68;100.00;98348.23;109423;1254;62014;-70
2024/02/13 06:58:23;;;;;;;;;;;;;;;8.63;100.00;98352.20;109463;1253;58874;-69
2024/02/13 07:00:51;;;;;;;;;;;;;;;8.59;100.00;98354.40;109441;1254;74235;-70
2024/02/13 07:03:19;;;;;;;;;;;;;;;8.53;100.00;98362.90;109439;1253;67346;-69
2024/02/13 07:05:47;;;;;;;;;;;;;;;8.62;100.00;98361.55;109431;1252;71582;-69
2024/02/13 07:08:15;;;;;;;;;;;;;;;8.63;100.00;98361.34;109418;1254;63192;-69
2024/02/13 07:10:43;;;;;;;;;;;;;;;8.57;100.00;98370.23;109507;1253;59862;-69
2024/02/13 07:13:10;;;;;;;;;;;;;;;8.53;100.00;98374.51;109615;1252;72884;-69
2024/02/13 07:15:38;;;;;;;;;;;;;;;8.54;100.00;98379.70;109292;1253;71094;-70
2024/02/13 07:18:06;;;;;;;;;;;;;;;8.33;100.00;98379.52;109620;1252;74120;-69
2024/02/13 07:20:34;;;;;;;;;;;;;;;8.26;100.00;98381.81;109594;1254;60079;-70
2024/02/13 07:23:03;;;;;;;;;;;;;;;8.16;100.00;98379.89;109534;1253;59982;-70
2024/02/13 07:25:30;;;;;;;;;;;;;;;8.09;100.00;98378.44;109429;1254;72613;-70
2024/02/13 07:27:58;;;;;;;;;;;;;;;8.13;100.00;98378.33;109402;1254;67565;-70
2024/02/13 07:30:26;;;;;;;;;;;;;;;8.16;100.00;98376.99;109257;1254;74688;-70
2024/02/13 07:32:54;;;;;;;;;;;;;;;8.11;100.00;98383.03;109388;1256;63127;-70
2024/02/13 07:35:22;;;;;;;;;;;;;;;8.24;100.00;98385.08;109418;1254;59159;-70
2024/02/13 07:37:50;;;;;;;;;;;;;;;8.23;100.00;98379.20;109394;1254;74547;-70
2024/02/13 07:40:17;;;;;;;;;;;;;;;8.15;100.00;98380.59;109406;1254;69508;-70
2024/02/13 07:42:45;;;;;;;;;;;;;;;8.18;100.00;98386.73;109406;1254;74265;-70
2024/02/13 07:45:13;;;;;;;;;;;;;;;8.19;100.00;98386.94;109393;1254;59811;-71
2024/02/13 07:47:41;;;;;;;;;;;;;;;8.23;100.00;98389.14;109428;1253;62136;-70
2024/02/13 07:50:09;;;;;;;;;;;;;;;8.31;100.00;98387.91;109326;1254;76684;-70
2024/02/13 07:52:37;;;;;;;;;;;;;;;8.37;100.00;98389.32;109277;1254;69901;-70
2024/02/13 07:55:05;;;;;;;;;;;;;;;8.34;100.00;98384.23;109397;1254;74656;-70
2024/02/13 07:57:35;;;;;;;;;;;;;;;8.45;100.00;98385.10;109436;1253;63251;-70
2024/02/13 08:00:03;;;;;;;;;;;;;;;8.55;100.00;98385.20;109421;1254;59645;-70
2024/02/13 08:02:31;;;;;;;;;;;;;;;8.46;100.00;98382.33;109296;1254;75008;-70
2024/02/13 08:04:59;;;;;;;;;;;;;;;8.54;100.00;98384.19;109158;1254;69143;-70
2024/02/13 08:07:27;;;;;;;;;;;;;;;8.65;100.00;98387.71;109380;1254;71461;-70
2024/02/13 08:09:55;;;;;;;;;;;;;;;8.76;100.00;98386.04;109393;1256;61535;-70
2024/02/13 08:12:24;;;;;;;;;;;;;;;8.74;100.00;98387.55;109262;1254;58928;-70
2024/02/13 08:14:52;;;;;;;;;;;;;;;8.77;100.00;98382.52;109299;1254;73849;-69
2024/02/13 08:17:19;;;;;;;;;;;;;;;8.82;100.00;98385.92;109326;1254;69520;-70
2024/02/13 08:19:47;;;;;;;;;;;;;;;8.88;100.00;98386.66;109153;1257;74118;-70
2024/02/13 08:22:18;;;;;;;;;;;;;;;8.79;100.00;98390.52;109046;1254;61019;-70
2024/02/13 08:24:45;;;;;;;;;;;;;;;8.76;100.00;98387.05;109130;1254;59041;-70
2024/02/13 08:27:16;;;;;;;;;;;;;;;8.64;100.00;98384.52;109311;1254;75422;-70
2024/02/13 08:29:47;;;;;;;;;;;;;;;8.65;100.00;98384.13;109321;1254;67679;-70
2024/02/13 08:32:14;;;;;;;;;;;;;;;8.67;100.00;98381.50;109300;1254;74992;-70
2024/02/13 08:34:42;;;;;;;;;;;;;;;8.59;100.00;98391.47;109278;1256;63233;-70
2024/02/13 08:37:11;;;;;;;;;;;;;;;8.63;100.00;98396.32;109344;1253;62108;-70
2024/02/13 08:39:39;;;;;;;;;;;;;;;8.71;100.00;98394.50;109550;1253;74593;-70
2024/02/13 08:42:06;;;;;;;;;;;;;;;8.66;100.00;98393.71;109558;1253;69048;-70
2024/02/13 08:44:34;;;;;;;;;;;;;;;8.69;100.00;98396.16;109416;1253;71972;-70
2024/02/13 08:47:02;;;;;;;;;;;;;;;8.84;100.00;98397.26;109527;1253;60824;-70
2024/02/13 08:49:30;;;;;;;;;;;;;;;8.81;100.00;98404.70;109541;1253;59769;-70
2024/02/13 08:51:58;;;;;;;;;;;;;;;8.81;100.00;98395.77;109497;1253;74850;-70
2024/02/13 08:54:25;;;;;;;;;;;;;;;8.77;100.00;98402.68;109454;1253;68738;-71
2024/02/13 08:56:53;;;;;;;;;;;;;;;8.75;100.00;98401.40;109312;1254;72816;-70
2024/02/13 08:59:21;;;;;;;;;;;;;;;8.73;100.00;98399.85;109531;1254;59363;-70
2024/02/13 09:01:48;;;;;;;;;;;;;;;8.67;100.00;98407.19;109437;1255;59252;-70
2024/02/13 09:04:16;;;;;;;;;;;;;;;8.74;100.00;98405.67;109475;1253;74738;-70
2024/02/13 09:06:43;;;;;;;;;;;;;;;8.90;100.00;98402.45;109539;1253;71112;-70
2024/02/13 09:09:12;;;;;;;;;;;;;;;8.95;100.00;98400.77;109522;1253;75006;-71
2024/02/13 09:11:40;;;;;;;;;;;;;;;9.03;100.00;98400.54;109583;1253;63674;-70
2024/02/13 09:14:09;;;;;;;;;;;;;;;9.05;100.00;98400.70;109612;1252;58925;-69
2024/02/13 09:16:37;;;;;;;;;;;;;;;9.02;100.00;98395.20;109605;1251;76914;-70
2024/02/13 09:19:04;;;;;;;;;;;;;;;9.05;100.00;98398.65;109542;1253;67662;-70
2024/02/13 09:21:32;;;;;;;;;;;;;;;8.98;100.00;98400.93;109400;1254;71880;-70
2024/02/13 09:24:00;;;;;;;;;;;;;;;9.03;100.00;98401.61;109368;1254;61143;-70
2024/02/13 09:26:27;;;;;;;;;;;;;;;8.98;100.00;98404.89;109380;1256;62222;-70
2024/02/13 09:28:55;;;;;;;;;;;;;;;8.93;100.00;98408.11;109407;1254;73819;-70
2024/02/13 09:31:22;;;;;;;;;;;;;;;9.03;100.00;98408.09;109419;1253;70235;-70
2024/02/13 09:33:50;;;;;;;;;;;;;;;8.99;100.00;98407.46;109378;1253;72224;-70
2024/02/13 09:36:20;;;;;;;;;;;;;;;8.99;100.00;98408.52;109345;1254;63225;-70
2024/02/13 09:38:48;;;;;;;;;;;;;;;8.99;100.00;98406.16;109205;1254;60014;-70
2024/02/13 09:41:15;;;;;;;;;;;;;;;9.00;100.00;98406.27;109256;1254;77442;-70
2024/02/13 09:43:45;;;;;;;;;;;;;;;9.00;100.00;98405.42;109170;1254;67687;-70
2024/02/13 09:46:16;;;;;;;;;;;;;;;8.92;100.00;98407.41;109385;1254;71394;-70
2024/02/13 09:48:47;;;;;;;;;;;;;;;8.91;100.00;98409.67;109181;1254;61266;-70
2024/02/13 09:51:18;;;;;;;;;;;;;;;9.00;100.00;98414.84;109441;1252;61242;-70
2024/02/13 09:53:47;;;;;;;;;;;;;;;9.00;100.00;98420.63;109497;1252;73540;-70
2024/02/13 09:56:15;;;;;;;;;;;;;;;8.90;100.00;98420.65;109530;1252;71071;-70
2024/02/13 09:58:44;;;;;;;;;;;;;;;8.83;100.00;98420.65;109460;1254;73429;-70
2024/02/13 10:01:11;;;;;;;;;;;;;;;8.86;100.00;98422.36;109497;1254;61589;-70
2024/02/13 10:03:39;;;;;;;;;;;;;;;8.96;100.00;98421.17;109566;1252;62043;-70
2024/02/13 10:06:06;;;;;;;;;;;;;;;8.97;100.00;98420.52;109508;1252;73403;-70
2024/02/13 10:08:37;;;;;;;;;;;;;;;9.00;100.00;98421.96;109289;1252;67147;-70
2024/02/13 10:11:08;;;;;;;;;;;;;;;9.29;100.00;98423.81;109534;1251;74440;-70
2024/02/13 10:13:39;;;;;;;;;;;;;;;9.53;100.00;98422.86;109612;1253;63278;-70
2024/02/13 10:16:18;;;;;;;;;;;;;;;9.66;100.00;98420.89;109459;1253;59668;-71
2024/02/13 10:18:57;;;;;;;;;;;;;;;9.71;100.00;98418.52;109447;1254;74606;-71
2024/02/13 10:21:25;;;;;;;;;;;;;;;9.65;100.00;98420.73;109436;1253;68852;-70
2024/02/13 10:24:13;;;;;;;;;;;;;;;9.79;100.00;98421.73;109434;1253;72690;-70
2024/02/13 10:26:41;;;;;;;;;;;;;;;9.97;100.00;98420.24;109480;1253;60758;-71
2024/02/13 10:29:09;;;;;;;;;;;;;;;10.05;100.00;98427.64;109490;1253;59460;-71
2024/02/13 10:31:37;;;;;;;;;;;;;;;9.87;100.00;98431.34;109503;1253;76902;-71
2024/02/13 10:34:09;;;;;;;;;;;;;;;9.96;100.00;98426.26;109482;1252;69268;-70
2024/02/13 10:36:39;;;;;;;;;;;;;;;9.82;100.00;98433.66;109475;1253;73422;-71
2024/02/13 10:39:08;;;;;;;;;;;;;;;9.84;100.00;98433.08;109297;1254;61483;-70
2024/02/13 10:41:40;;;;;;;;;;;;;;;9.82;100.00;98437.64;109436;1253;61357;-70
2024/02/13 10:44:11;;;;;;;;;;;;;;;9.87;100.00;98433.70;109424;1252;75977;-71
2024/02/13 10:46:39;;;;;;;;;;;;;;;9.98;100.00;98429.82;109218;1253;70547;-71
2024/02/13 10:49:26;;;;;;;;;;;;;;;10.17;100.00;98429.66;109508;1253;73193;-70
2024/02/13 10:51:54;;;;;;;;;;;;;;;10.39;100.00;98433.99;109394;1256;63089;-71
2024/02/13 10:54:24;;;;;;;;;;;;;;;10.38;100.00;98436.91;109191;1253;61166;-71
2024/02/13 10:56:52;;;;;;;;;;;;;;;10.42;100.00;98437.45;109427;1253;74574;-71
2024/02/13 10:59:21;;;;;;;;;;;;;;;10.65;100.00;98436.11;109369;1253;67873;-70
2024/02/13 11:01:51;;;;;;;;;;;;;;;10.89;100.00;98441.36;109448;1253;74202;-71
2024/02/13 11:04:19;;;;;;;;;;;;;;;10.84;100.00;98443.66;109303;1253;60358;-71
2024/02/13 11:06:47;;;;;;;;;;;;;;;10.74;100.00;98443.86;109459;1253;59683;-71
2024/02/13 11:09:14;;;;;;;;;;;;;;;10.92;100.00;98445.84;109470;1253;73411;-71
2024/02/13 11:11:43;;;;;;;;;;;;;;;11.07;100.00;98448.12;109520;1253;70649;-70
2024/02/13 11:14:17;;;;;;;;;;;;;;;10.96;100.00;98450.31;109225;1254;73188;-71
2024/02/13 11:16:51;;;;;;;;;;;;;;;10.87;100.00;98449.80;109418;1254;60397;-71
2024/02/13 11:19:20;;;;;;;;;;;;;;;10.85;100.00;98447.73;109175;1254;61621;-71
2024/02/13 11:21:51;;;;;;;;;;;;;;;10.81;100.00;98451.15;109433;1253;74800;-71
2024/02/13 11:24:19;;;;;;;;;;;;;;;10.78;100.00;98453.42;109456;1253;71097;-70
2024/02/13 11:26:47;;;;;;;;;;;;;;;10.89;100.00;98455.75;109434;1254;70894;-70
2024/02/13 11:29:14;;;;;;;;;;;;;;;10.93;100.00;98458.56;109430;1254;62318;-71
2024/02/13 11:31:52;;;;;;;;;;;;;;;10.84;100.00;98453.06;109468;1254;61760;-71
2024/02/13 11:34:19;;;;;;;;;;;;;;;10.78;100.00;98456.70;109354;1254;73506;-71
2024/02/13 11:36:51;;;;;;;;;;;;;;;10.83;100.00;98455.00;109445;1254;67843;-71
2024/02/13 11:39:19;;;;;;;;;;;;;;;10.83;100.00;98451.61;109416;1254;71519;-71
2024/02/13 11:41:46;;;;;;;;;;;;;;;10.84;100.00;98451.77;109410;1254;61048;-71
2024/02/13 11:44:16;;;;;;;;;;;;;;;10.93;100.00;98454.17;109377;1254;61221;-71
2024/02/13 11:46:54;;;;;;;;;;;;;;;10.96;100.00;98459.60;109583;1253;73921;-70
2024/02/13 11:49:25;;;;;;;;;;;;;;;10.82;100.00;98459.52;109589;1252;67190;-71
2024/02/13 11:51:54;;;;;;;;;;;;;;;10.70;100.00;98462.03;109516;1252;72691;-72
2024/02/13 11:54:22;;;;;;;;;;;;;;;10.82;100.00;98461.40;109496;1253;61534;-71
2024/02/13 11:56:50;;;;;;;;;;;;;;;10.92;100.00;98462.98;109582;1252;59237;-70
2024/02/13 11:59:19;;;;;;;;;;;;;;;10.96;100.00;98463.10;109552;1253;76723;-71
2024/02/13 12:01:48;;;;;;;;;;;;;;;11.03;100.00;98464.77;109524;1252;70364;-71
2024/02/13 12:04:16;;;;;;;;;;;;;;;10.91;100.00;98463.36;109554;1252;72257;-72
2024/02/13 12:06:44;;;;;;;;;;;;;;;10.94;100.00;98467.73;109535;1253;62249;-71
2024/02/13 12:09:15;;;;;;;;;;;;;;;10.89;100.00;98476.75;109413;1252;60650;-71
2024/02/13 12:11:42;;;;;;;;;;;;;;;10.78;100.00;98478.61;109531;1253;74862;-71
2024/02/13 12:14:13;;;;;;;;;;;;;;;10.73;100.00;98476.94;109226;1251;69939;-72
2024/02/13 12:16:42;;;;;;;;;;;;;;;10.77;100.00;98473.04;109643;1251;71207;-71
2024/02/13 12:19:10;;;;;;;;;;;;;;;10.88;100.00;98479.86;109607;1251;60019;-71
2024/02/13 12:21:38;;;;;;;;;;;;;;;10.88;100.00;98484.70;109619;1251;59036;-71
2024/02/13 12:24:07;;;;;;;;;;;;;;;10.89;100.00;98478.14;109597;1251;74550;-70
2024/02/13 12:26:37;;;;;;;;;;;;;;;10.82;100.00;98478.20;109585;1251;68442;-71
2024/02/13 12:29:14;;;;;;;;;;;;;;;10.88;100.00;98486.35;109642;1251;73317;-71
2024/02/13 12:31:45;;;;;;;;;;;;;;;10.97;100.00;98482.55;109590;1251;63736;-71
2024/02/13 12:34:13;;;;;;;;;;;;;;;10.99;100.00;98482.68;109615;1251;60346;-71
2024/02/13 12:36:41;;;;;;;;;;;;;;;11.02;100.00;98488.77;109623;1251;75377;-71
2024/02/13 12:39:16;;;;;;;;;;;;;;;-128.00;-1.00;-1.00;105840;1251;1056011;-72
2024/02/13 12:41:45;;;;;;;;;;;;;;;-128.00;-1.00;-1.00;105555;1251;1058114;-71
2024/02/13 12:44:13;;;;;;;;;;;;;;;-128.00;-1.00;-1.00;105800;1251;1050048;-71
2024/02/13 12:46:41;;;;;;;;;;;;;;;-128.00;-1.00;-1.00;105725;1251;1003753;-70